LZIB Airport Information

Runway Information
Runway 04 Length 9515 ft width 197 ft Elevation 436 ft Threshold N/A Heading 44
Runway 22 Length 9515 ft Width 197 ft Elevation 430 ft Threshold N/A Heading 224
Runway 13 Length 10466 ft width 148 ft Elevation 433 ft Threshold N/A Heading 134
Runway 31 Length 10466 ft Width 148 ft Elevation 434 ft Threshold 777 ft Heading 314
Airport Frequencies
Type APP Name APP Frequency 120.9 MHZ
Type ATIS Name ATIS Frequency 128.65 MHZ
Type TWR Name TWR Frequency 118.3 MHZ
Airport Navaids
Type VOR-DME Name Janovce Frequency 110800 KHZ
Type NDB Name Stefanik South Frequency 330 KHZ
Type NDB Name Stefanik North Frequency 391 KHZ
Airport Weather Information & NOTAM
ADDS - METARS form results

(2022 UTC 28 January 2023)
Data provider http://aviationweather.gov/metar/data/
 
METAR text: LZIB 282000Z 34012KT 9999 FEW013 01/M04 Q1024 NOSIG
Conditions at: LZIB (BRATISLAVA IVANK, SK) observed 2000 UTC 28 January 2023
Temperature: 1.0°C (34°F)
Dewpoint: -4.0°C (25°F) [RH = 69%]
Pressure (altimeter): 30.24 inches Hg (1024.0 mb)
Winds: from the NNW (340 degrees) at 14 MPH (12 knots; 6.2 m/s)
Visibility: 6 or more miles (10+ km)
Ceiling: at least 12,000 feet AGL
Clouds: few clouds at 1300 feet AGL
Weather: no significant weather observed at this time

METAR text: LZIB 281930Z 34011KT 9999 FEW015 SCT047 01/M04 Q1024 NOSIG
Conditions at: LZIB (BRATISLAVA IVANK, SK) observed 1930 UTC 28 January 2023
Temperature: 1.0°C (34°F)
Dewpoint: -4.0°C (25°F) [RH = 69%]
Pressure (altimeter): 30.24 inches Hg (1024.0 mb)
Winds: from the NNW (340 degrees) at 13 MPH (11 knots; 5.7 m/s)
Visibility: 6 or more miles (10+ km)
Ceiling: at least 12,000 feet AGL
Clouds: few clouds at 1500 feet AGL
scattered clouds at 4700 feet AGL
Weather: no significant weather observed at this time

Forecast for: LZIB (BRATISLAVA IVANK, SK)
Text: TAF LZIB 281715Z 2818/2918 33010KT 9999 FEW010 SCT040
Forecast period: 1800 UTC 28 January 2023 to 1800 UTC 29 January 2023
Forecast type: FROM: standard forecast or significant change
Winds: from the NNW (330 degrees) at 12 MPH (10 knots; 5.1 m/s)
Visibility: 6 or more miles (10+ km)
Ceiling: at least 12,000 feet AGL
Clouds: few clouds at 1000 feet AGL
scattered clouds at 4000 feet AGL
Weather: no significant weather forecast for this period
Text: TEMPO 2821/2902 34021KT
Forecast period: 2100 UTC 28 January 2023 to 0200 UTC 29 January 2023
Forecast type: TEMPORARY: The following changes expected for less than half the time period
Winds: from the NNW (340 degrees) at 24 MPH (21 knots; 10.8 m/s)
Visibility: missing
Ceiling: unknown
Clouds: missing
Weather: no significant weather forecast for this period